createdAt,value
2018-11-07T00:00:14.399Z,3.90
2018-11-07T00:01:14.407Z,3.80
2018-11-07T00:02:14.429Z,3.40
2018-11-07T00:03:14.437Z,3.70
2018-11-07T00:04:14.468Z,3.50
2018-11-07T00:05:14.473Z,3.40
2018-11-07T00:06:14.492Z,3.00
2018-11-07T00:07:14.508Z,3.30
2018-11-07T00:08:14.676Z,3.30
2018-11-07T00:09:14.545Z,3.40
2018-11-07T00:10:14.563Z,3.70
2018-11-07T00:11:14.571Z,3.40
2018-11-07T00:12:14.600Z,3.70
2018-11-07T00:13:14.613Z,3.60
2018-11-07T00:14:14.628Z,3.30
2018-11-07T00:15:14.644Z,3.80
2018-11-07T00:16:14.668Z,3.10
2018-11-07T00:17:14.684Z,3.40
2018-11-07T00:18:14.700Z,3.00
2018-11-07T00:19:14.722Z,3.40
2018-11-07T00:20:14.727Z,3.30
2018-11-07T00:21:14.748Z,3.00
2018-11-07T00:22:14.795Z,3.40
2018-11-07T00:23:14.780Z,3.40
2018-11-07T00:24:14.801Z,3.60
2018-11-07T00:25:14.816Z,3.40
2018-11-07T00:26:14.839Z,3.50
2018-11-07T00:27:14.848Z,3.60
2018-11-07T00:28:14.868Z,3.50
2018-11-07T00:29:14.883Z,3.30
2018-11-07T00:30:15.138Z,3.40
2018-11-07T00:31:14.923Z,3.90
2018-11-07T00:32:14.942Z,3.90
2018-11-07T00:33:14.960Z,3.20
2018-11-07T00:34:14.972Z,3.60
2018-11-07T00:35:15.055Z,3.90
2018-11-07T00:36:15.004Z,4.10
2018-11-07T00:37:15.025Z,3.70
2018-11-07T00:38:15.039Z,3.40
2018-11-07T00:39:15.063Z,3.80
2018-11-07T00:40:15.076Z,3.80
2018-11-07T00:41:15.091Z,3.20
2018-11-07T00:42:15.133Z,3.30
2018-11-07T00:43:15.128Z,4.00
2018-11-07T00:44:15.139Z,3.80
2018-11-07T00:45:15.204Z,3.30
2018-11-07T00:46:15.171Z,3.40
2018-11-07T00:47:15.195Z,3.40
2018-11-07T00:48:15.253Z,3.50
2018-11-07T00:49:15.228Z,3.60
2018-11-07T00:50:15.251Z,3.30
2018-11-07T00:51:15.291Z,3.80
2018-11-07T00:52:15.282Z,3.20
2018-11-07T00:53:15.298Z,3.60
2018-11-07T00:54:15.314Z,1.90
2018-11-07T00:55:15.332Z,1.50
2018-11-07T00:56:15.354Z,1.10
2018-11-07T00:57:15.371Z,1.40
2018-11-07T00:58:15.462Z,1.10
2018-11-07T00:59:15.412Z,1.00
2018-11-07T01:00:15.416Z,1.00
2018-11-07T01:01:15.430Z,0.90
2018-11-07T01:02:15.450Z,0.80
2018-11-07T01:03:15.506Z,1.20
2018-11-07T01:04:15.478Z,0.70
2018-11-07T01:05:15.499Z,1.00
2018-11-07T01:06:15.518Z,1.00
2018-11-07T01:07:15.543Z,1.00
2018-11-07T01:08:15.554Z,0.80
2018-11-07T01:09:15.586Z,0.90
2018-11-07T01:10:15.582Z,1.20
2018-11-07T01:11:15.602Z,0.70
2018-11-07T01:12:15.619Z,1.20
2018-11-07T01:13:15.638Z,1.10
2018-11-07T01:14:15.658Z,1.00
2018-11-07T01:15:15.702Z,0.80
2018-11-07T01:16:15.695Z,1.20
2018-11-07T01:17:15.723Z,1.30
2018-11-07T01:18:15.717Z,1.20
2018-11-07T01:19:15.746Z,1.30
2018-11-07T01:20:15.758Z,1.30
2018-11-07T01:21:15.782Z,1.00
2018-11-07T01:22:15.848Z,1.10
2018-11-07T01:23:15.944Z,1.50
2018-11-07T01:24:15.831Z,1.30
2018-11-07T01:25:15.843Z,1.70
2018-11-07T01:26:15.860Z,1.70
2018-11-07T01:27:15.883Z,1.60
2018-11-07T01:28:16.056Z,1.70
2018-11-07T01:29:15.914Z,1.80
2018-11-07T01:30:15.930Z,1.90
2018-11-07T01:31:15.942Z,1.70
2018-11-07T01:32:15.966Z,1.80
2018-11-07T01:33:15.985Z,1.80
2018-11-07T01:34:15.995Z,2.00
2018-11-07T01:35:16.016Z,2.00
2018-11-07T01:36:16.034Z,2.00
2018-11-07T01:37:16.142Z,1.90
2018-11-07T01:38:16.066Z,2.00
2018-11-07T01:39:16.082Z,2.10
2018-11-07T01:40:16.098Z,2.20
2018-11-07T01:41:16.118Z,1.80
2018-11-07T01:42:16.131Z,2.30
2018-11-07T01:43:16.148Z,2.20
2018-11-07T01:44:16.163Z,1.70
2018-11-07T01:45:16.183Z,2.10
2018-11-07T01:46:16.199Z,2.00
2018-11-07T01:47:16.218Z,1.90
2018-11-07T01:48:16.235Z,1.90
2018-11-07T01:49:16.254Z,1.70
2018-11-07T01:50:16.270Z,1.80
2018-11-07T01:51:16.286Z,2.30
2018-11-07T01:52:16.303Z,2.00
2018-11-07T01:53:16.318Z,2.00
2018-11-07T01:54:16.334Z,1.80
2018-11-07T01:55:16.375Z,2.20
2018-11-07T01:56:16.370Z,2.00
2018-11-07T01:57:16.390Z,2.10
2018-11-07T01:58:16.408Z,2.40
2018-11-07T01:59:16.430Z,2.00
2018-11-07T02:00:16.439Z,2.30
2018-11-07T02:01:16.454Z,1.90
2018-11-07T02:02:16.477Z,2.60
2018-11-07T02:03:16.490Z,2.60
2018-11-07T02:04:16.506Z,2.40
2018-11-07T02:05:16.521Z,2.00
2018-11-07T02:06:16.541Z,2.40
2018-11-07T02:07:16.557Z,2.50
2018-11-07T02:08:16.578Z,2.40
2018-11-07T02:09:16.590Z,2.30
2018-11-07T02:10:16.609Z,2.10
2018-11-07T02:11:16.626Z,2.30
2018-11-07T02:12:16.646Z,2.60
2018-11-07T02:13:16.657Z,2.50
2018-11-07T02:14:16.674Z,2.20
2018-11-07T02:15:16.690Z,2.40
2018-11-07T02:16:16.709Z,2.50
2018-11-07T02:17:16.730Z,2.40
2018-11-07T02:18:16.742Z,2.00
2018-11-07T02:19:16.757Z,2.50
2018-11-07T02:20:16.777Z,2.40
2018-11-07T02:21:16.794Z,2.20
2018-11-07T02:22:16.807Z,2.50
2018-11-07T02:23:16.833Z,2.40
2018-11-07T02:24:16.842Z,2.70
2018-11-07T02:25:16.870Z,2.80
2018-11-07T02:26:16.891Z,2.50
2018-11-07T02:27:16.905Z,2.70
2018-11-07T02:28:17.005Z,2.30
2018-11-07T02:29:16.939Z,2.50
2018-11-07T02:30:16.958Z,2.70
2018-11-07T02:31:16.973Z,2.50
2018-11-07T02:32:16.991Z,2.50
2018-11-07T02:33:17.003Z,2.80
2018-11-07T02:34:17.088Z,3.20
2018-11-07T02:35:17.053Z,2.60
2018-11-07T02:36:17.058Z,2.40
2018-11-07T02:37:17.076Z,2.50
2018-11-07T02:38:17.087Z,2.80
2018-11-07T02:39:17.105Z,2.90
2018-11-07T02:40:17.149Z,2.60
2018-11-07T02:41:17.142Z,2.70
2018-11-07T02:42:17.156Z,2.50
2018-11-07T02:43:17.168Z,2.80
2018-11-07T02:44:17.193Z,2.70
2018-11-07T02:45:17.206Z,2.80
2018-11-07T02:46:17.229Z,3.00
2018-11-07T02:47:17.237Z,2.80
2018-11-07T02:48:17.262Z,2.90
2018-11-07T02:49:17.278Z,2.60
2018-11-07T02:50:17.289Z,2.90
2018-11-07T02:51:17.309Z,3.00
2018-11-07T02:52:17.325Z,3.20
2018-11-07T02:53:17.354Z,3.30
2018-11-07T02:54:17.362Z,3.00
2018-11-07T02:55:17.382Z,3.30
2018-11-07T02:56:17.393Z,3.40
2018-11-07T02:57:17.413Z,3.40
2018-11-07T02:58:17.441Z,3.40
2018-11-07T02:59:17.450Z,4.00
2018-11-07T03:00:17.462Z,3.30
2018-11-07T03:01:17.541Z,3.40
2018-11-07T03:02:17.495Z,3.80
2018-11-07T03:03:17.594Z,3.50
2018-11-07T03:04:17.544Z,3.60
2018-11-07T03:05:17.546Z,3.80
2018-11-07T03:06:17.562Z,3.10
2018-11-07T03:07:17.578Z,4.00
2018-11-07T03:08:17.611Z,4.10
2018-11-07T03:09:17.678Z,3.50
2018-11-07T03:10:17.634Z,4.10
2018-11-07T03:11:17.652Z,3.80
2018-11-07T03:12:17.663Z,3.70
2018-11-07T03:13:17.683Z,3.80
2018-11-07T03:14:17.703Z,3.50
2018-11-07T03:15:17.718Z,3.70
2018-11-07T03:16:17.733Z,3.60
2018-11-07T03:17:17.748Z,3.40
2018-11-07T03:18:17.765Z,3.80
2018-11-07T03:19:17.783Z,3.90
2018-11-07T03:20:17.809Z,3.90
2018-11-07T03:21:17.815Z,3.60
2018-11-07T03:22:17.837Z,3.40
2018-11-07T03:23:17.855Z,3.90
2018-11-07T03:24:17.869Z,3.90
2018-11-07T03:25:17.886Z,3.50
2018-11-07T03:26:17.910Z,3.20
2018-11-07T03:27:17.920Z,3.40
2018-11-07T03:28:17.932Z,3.80
2018-11-07T03:29:17.958Z,3.70
2018-11-07T03:30:17.971Z,3.70
2018-11-07T03:31:17.987Z,3.80
2018-11-07T03:32:18.007Z,3.90
2018-11-07T03:33:18.051Z,3.80
2018-11-07T03:34:18.033Z,3.80
2018-11-07T03:35:18.058Z,3.80
2018-11-07T03:36:18.072Z,3.90
2018-11-07T03:37:18.095Z,3.70
2018-11-07T03:38:18.106Z,3.80
2018-11-07T03:39:18.122Z,3.70
2018-11-07T03:40:18.135Z,4.20
2018-11-07T03:41:18.157Z,3.40
2018-11-07T03:42:18.171Z,4.00
2018-11-07T03:43:18.191Z,3.70
2018-11-07T03:44:18.213Z,4.30
2018-11-07T03:45:18.222Z,4.30
2018-11-07T03:46:18.235Z,4.00
2018-11-07T03:47:18.263Z,3.90
2018-11-07T03:48:18.273Z,3.60
2018-11-07T03:49:18.290Z,3.90
2018-11-07T03:50:18.310Z,3.70
2018-11-07T03:51:18.331Z,3.90
2018-11-07T03:52:18.350Z,3.40
2018-11-07T03:53:18.468Z,3.50
2018-11-07T03:54:18.374Z,3.40
2018-11-07T03:55:18.394Z,4.00
2018-11-07T03:56:18.418Z,3.60
2018-11-07T03:57:18.434Z,4.10
2018-11-07T03:58:18.442Z,3.70
2018-11-07T03:59:18.462Z,4.50
2018-11-07T04:00:18.481Z,4.40
2018-11-07T04:01:18.493Z,3.70
2018-11-07T04:02:18.513Z,3.70
2018-11-07T04:04:26.215Z,3.70
2018-11-07T04:05:18.566Z,4.00
2018-11-07T04:06:18.578Z,3.70
2018-11-07T04:07:18.595Z,3.90
2018-11-07T04:08:18.625Z,3.90
2018-11-07T04:09:18.629Z,4.10
2018-11-07T04:10:18.703Z,4.10
2018-11-07T04:11:18.664Z,4.30
2018-11-07T04:12:18.683Z,4.10
2018-11-07T04:13:18.703Z,4.00
2018-11-07T04:14:18.787Z,4.60
2018-11-07T04:15:18.739Z,4.30
2018-11-07T04:16:18.751Z,4.30
2018-11-07T04:17:18.769Z,4.10
2018-11-07T04:18:18.782Z,3.80
2018-11-07T04:19:18.844Z,3.60
2018-11-07T04:20:18.842Z,4.00
2018-11-07T04:21:18.834Z,4.00
2018-11-07T04:22:18.850Z,4.40
2018-11-07T04:23:18.875Z,4.60
2018-11-07T04:24:18.987Z,4.10
2018-11-07T04:25:18.908Z,4.10
2018-11-07T04:26:18.938Z,4.10
2018-11-07T04:27:18.939Z,4.10
2018-11-07T04:28:18.961Z,4.40
2018-11-07T04:29:18.977Z,4.00
2018-11-07T04:30:18.998Z,4.50
2018-11-07T04:31:19.007Z,4.20
2018-11-07T04:32:19.111Z,4.40
2018-11-07T04:33:19.045Z,4.80
2018-11-07T04:34:19.063Z,4.50
2018-11-07T04:35:19.073Z,4.20
2018-11-07T04:36:19.098Z,4.60
2018-11-07T04:37:19.107Z,4.50
2018-11-07T04:38:19.183Z,4.60
2018-11-07T04:39:19.230Z,4.30
2018-11-07T04:40:19.164Z,4.40
2018-11-07T04:41:19.176Z,4.50
2018-11-07T04:42:19.200Z,4.70
2018-11-07T04:43:19.211Z,4.50
2018-11-07T04:44:19.230Z,4.40
2018-11-07T04:45:19.247Z,4.70
2018-11-07T04:46:19.258Z,4.40
2018-11-07T04:47:19.283Z,4.60
2018-11-07T04:48:19.295Z,4.50
2018-11-07T04:49:19.316Z,4.80
2018-11-07T04:50:19.327Z,4.50
2018-11-07T04:51:19.352Z,4.90
2018-11-07T04:52:19.360Z,4.60
2018-11-07T04:53:19.379Z,4.50
2018-11-07T04:54:19.400Z,4.90
2018-11-07T04:55:19.451Z,4.60
2018-11-07T04:56:19.444Z,5.10
2018-11-07T04:57:19.448Z,4.90
2018-11-07T04:58:19.479Z,4.60
2018-11-07T04:59:19.483Z,4.70
2018-11-07T05:00:19.616Z,4.70
2018-11-07T05:01:19.519Z,4.60
2018-11-07T05:02:19.531Z,4.60
2018-11-07T05:03:19.553Z,4.30
2018-11-07T05:04:19.568Z,4.40
2018-11-07T05:05:19.579Z,4.60
2018-11-07T05:06:19.607Z,4.50
2018-11-07T05:07:19.624Z,4.20
2018-11-07T05:08:19.640Z,4.50
2018-11-07T05:09:19.651Z,4.30
2018-11-07T05:10:19.673Z,4.50
2018-11-07T05:11:19.685Z,4.40
2018-11-07T05:12:19.708Z,4.40
2018-11-07T05:13:19.724Z,4.40
2018-11-07T05:14:19.740Z,4.60
2018-11-07T05:15:19.756Z,4.40
2018-11-07T05:16:19.771Z,4.50
2018-11-07T05:17:19.801Z,4.90
2018-11-07T05:18:19.808Z,5.10
2018-11-07T05:19:19.859Z,4.70
2018-11-07T05:20:19.840Z,4.60
2018-11-07T05:21:19.860Z,4.90
2018-11-07T05:22:19.876Z,4.60
2018-11-07T05:23:19.896Z,4.50
2018-11-07T05:24:19.933Z,4.20
2018-11-07T05:25:19.929Z,4.80
2018-11-07T05:26:20.083Z,4.60
2018-11-07T05:27:19.968Z,4.40
2018-11-07T05:28:19.980Z,4.20
2018-11-07T05:29:20.008Z,4.70
2018-11-07T05:30:20.017Z,4.70
2018-11-07T05:31:20.029Z,4.40
2018-11-07T05:32:20.045Z,4.20
2018-11-07T05:33:20.065Z,4.40
2018-11-07T05:34:20.076Z,4.50
2018-11-07T05:35:20.100Z,4.60
2018-11-07T05:36:20.122Z,4.20
2018-11-07T05:37:20.136Z,4.70
2018-11-07T05:38:20.152Z,4.40
2018-11-07T05:39:20.171Z,4.30
2018-11-07T05:40:20.188Z,4.10
2018-11-07T05:41:20.274Z,4.30
2018-11-07T05:42:20.233Z,4.80
2018-11-07T05:43:20.240Z,4.50
2018-11-07T05:44:20.256Z,4.20
2018-11-07T05:45:20.272Z,4.50
2018-11-07T05:46:20.289Z,4.70
2018-11-07T05:47:20.305Z,4.20
2018-11-07T05:48:20.329Z,4.10
2018-11-07T05:49:20.341Z,4.30
2018-11-07T05:50:20.369Z,4.30
2018-11-07T05:51:20.381Z,4.40
2018-11-07T05:52:20.393Z,4.20
2018-11-07T05:53:20.410Z,4.60
2018-11-07T05:54:20.425Z,4.50
2018-11-07T05:55:20.438Z,4.40
2018-11-07T05:56:20.462Z,4.50
2018-11-07T05:57:20.475Z,4.50
2018-11-07T05:58:20.496Z,4.30
2018-11-07T05:59:20.515Z,4.80
2018-11-07T06:00:20.594Z,4.70
2018-11-07T06:01:20.546Z,4.20
2018-11-07T06:02:20.563Z,4.50
2018-11-07T06:03:20.575Z,4.60
2018-11-07T06:04:20.597Z,4.90
2018-11-07T06:05:20.613Z,4.40
2018-11-07T06:06:20.633Z,3.80
2018-11-07T06:08:20.665Z,4.40
2018-11-07T06:09:20.690Z,4.80
2018-11-07T06:10:20.701Z,4.10
2018-11-07T06:11:20.718Z,4.60
2018-11-07T06:12:20.805Z,4.50
2018-11-07T06:13:20.749Z,4.80
2018-11-07T06:14:20.767Z,4.50
2018-11-07T06:15:20.790Z,4.30
2018-11-07T06:16:20.872Z,4.20
2018-11-07T06:17:20.822Z,5.20
2018-11-07T06:18:20.853Z,5.10
2018-11-07T06:19:20.858Z,4.70
2018-11-07T06:20:20.874Z,4.80
2018-11-07T06:21:20.886Z,4.70
2018-11-07T06:22:20.902Z,4.50
2018-11-07T06:23:20.918Z,5.10
2018-11-07T06:24:21.073Z,4.80
2018-11-07T06:25:20.963Z,4.50
2018-11-07T06:26:20.971Z,4.30
2018-11-07T06:27:20.993Z,4.80
2018-11-07T06:28:21.005Z,4.80
2018-11-07T06:29:21.030Z,4.70
2018-11-07T06:30:21.050Z,5.20
2018-11-07T06:31:21.062Z,4.30
2018-11-07T06:32:21.079Z,4.90
2018-11-07T06:33:21.096Z,4.90
2018-11-07T06:34:21.110Z,4.40
2018-11-07T06:35:21.134Z,4.70
2018-11-07T06:36:21.154Z,4.70
2018-11-07T06:37:21.171Z,4.80
2018-11-07T06:38:21.183Z,4.20
2018-11-07T06:39:21.207Z,4.50
2018-11-07T06:40:21.221Z,4.50
2018-11-07T06:41:21.238Z,4.50
2018-11-07T06:42:21.318Z,4.90
2018-11-07T06:43:21.271Z,4.70
2018-11-07T06:44:21.306Z,5.00
2018-11-07T06:45:21.315Z,4.60
2018-11-07T06:46:21.332Z,4.50
2018-11-07T06:47:21.341Z,4.90
2018-11-07T06:48:21.390Z,4.90
2018-11-07T06:49:21.371Z,4.50
2018-11-07T06:50:21.390Z,4.40
2018-11-07T06:51:21.412Z,4.60
2018-11-07T06:52:21.423Z,4.20
2018-11-07T06:53:21.439Z,4.60
2018-11-07T06:54:21.483Z,4.40
2018-11-07T06:55:21.483Z,4.70
2018-11-07T06:56:21.500Z,4.90
2018-11-07T06:57:21.520Z,4.70
2018-11-07T06:58:21.531Z,4.10
2018-11-07T06:59:21.553Z,4.90
2018-11-07T07:00:21.595Z,4.90
2018-11-07T07:01:21.633Z,4.90
2018-11-07T07:02:21.606Z,5.00
2018-11-07T07:03:21.624Z,4.30
2018-11-07T07:04:21.640Z,4.60
2018-11-07T07:05:21.655Z,4.20
2018-11-07T07:06:21.725Z,4.50
2018-11-07T07:07:21.694Z,4.60
2018-11-07T07:08:21.704Z,4.80
2018-11-07T07:09:21.729Z,4.60
2018-11-07T07:10:21.748Z,4.70
2018-11-07T07:11:21.760Z,5.00
2018-11-07T07:12:21.811Z,4.20
2018-11-07T07:13:21.788Z,4.90
2018-11-07T07:14:21.811Z,4.30
2018-11-07T07:15:21.828Z,5.00
2018-11-07T07:16:21.845Z,4.50
2018-11-07T07:17:21.928Z,4.70
2018-11-07T07:18:21.912Z,4.20
2018-11-07T07:19:21.898Z,4.40
2018-11-07T07:20:21.916Z,4.20
2018-11-07T07:21:21.937Z,4.80
2018-11-07T07:22:21.953Z,4.50
2018-11-07T07:23:22.016Z,4.80
2018-11-07T07:24:22.017Z,4.80
2018-11-07T07:25:22.062Z,4.70
2018-11-07T07:26:22.077Z,4.40
2018-11-07T07:27:22.077Z,4.20
2018-11-07T07:28:22.078Z,4.20
2018-11-07T07:29:22.076Z,4.10
2018-11-07T07:30:22.121Z,5.20
2018-11-07T07:31:22.108Z,5.10
2018-11-07T07:32:22.133Z,4.70
2018-11-07T07:33:22.208Z,4.00
2018-11-07T07:34:22.157Z,4.20
2018-11-07T07:35:22.178Z,5.20
2018-11-07T07:36:22.192Z,4.50
2018-11-07T07:37:22.217Z,4.80
2018-11-07T07:38:22.234Z,4.40
2018-11-07T07:39:22.242Z,4.20
2018-11-07T07:40:22.258Z,4.70
2018-11-07T07:41:22.286Z,4.70
2018-11-07T07:42:22.293Z,4.60
2018-11-07T07:43:22.318Z,4.40
2018-11-07T07:44:22.338Z,5.00
2018-11-07T07:45:22.348Z,4.60
2018-11-07T07:46:22.373Z,4.90
2018-11-07T07:47:22.396Z,4.90
2018-11-07T07:48:22.406Z,4.80
2018-11-07T07:49:22.523Z,4.60
2018-11-07T07:50:22.433Z,5.00
2018-11-07T07:51:22.462Z,4.70
2018-11-07T07:52:22.585Z,4.80
2018-11-07T07:53:22.614Z,4.80
2018-11-07T07:54:22.513Z,4.80
2018-11-07T07:55:22.525Z,4.70
2018-11-07T07:56:22.541Z,4.80
2018-11-07T07:57:22.562Z,4.40
2018-11-07T07:58:22.580Z,4.20
2018-11-07T07:59:22.650Z,4.60
2018-11-07T08:00:22.615Z,4.30
2018-11-07T08:01:22.633Z,4.10
2018-11-07T08:02:22.650Z,4.20
2018-11-07T08:03:22.670Z,4.60
2018-11-07T08:04:22.690Z,5.00
2018-11-07T08:05:22.752Z,4.70
2018-11-07T08:06:22.998Z,4.50
2018-11-07T08:07:22.750Z,4.50
2018-11-07T08:08:22.757Z,4.40
2018-11-07T08:09:22.778Z,5.00
2018-11-07T08:10:22.804Z,4.90
2018-11-07T08:11:22.823Z,4.20
2018-11-07T08:12:22.829Z,4.70
2018-11-07T08:13:22.914Z,4.40
2018-11-07T08:14:22.875Z,4.50
2018-11-07T08:15:22.891Z,4.30
2018-11-07T08:16:22.906Z,4.40
2018-11-07T08:17:22.923Z,4.40
2018-11-07T08:18:22.952Z,4.50
2018-11-07T08:19:22.977Z,4.40
2018-11-07T08:20:22.986Z,4.30
2018-11-07T08:21:23.069Z,4.10
2018-11-07T08:22:23.030Z,4.10
2018-11-07T08:23:23.078Z,4.10
2018-11-07T08:24:23.067Z,4.10
2018-11-07T08:25:23.093Z,4.10
2018-11-07T08:26:23.109Z,4.40
2018-11-07T08:27:23.135Z,4.00
2018-11-07T08:28:23.150Z,4.50
2018-11-07T08:29:23.235Z,4.40
2018-11-07T08:30:23.184Z,4.30
2018-11-07T08:31:23.213Z,4.20
2018-11-07T08:32:23.227Z,4.00
2018-11-07T08:33:23.254Z,4.20
2018-11-07T08:34:23.272Z,4.40
2018-11-07T08:35:23.312Z,4.70
2018-11-07T08:36:23.315Z,4.70
2018-11-07T08:37:23.340Z,4.30
2018-11-07T08:38:23.358Z,4.40
2018-11-07T08:39:23.383Z,4.60
2018-11-07T08:40:23.401Z,4.70
2018-11-07T08:41:23.499Z,4.00
2018-11-07T08:42:23.577Z,4.40
2018-11-07T08:43:23.471Z,3.80
2018-11-07T08:44:23.533Z,4.20
2018-11-07T08:45:23.507Z,4.30
2018-11-07T08:46:23.536Z,4.00
2018-11-07T08:47:23.626Z,3.80
2018-11-07T08:48:23.579Z,3.90
2018-11-07T08:49:23.604Z,3.60
2018-11-07T08:50:23.617Z,3.50
2018-11-07T08:51:23.648Z,3.90
2018-11-07T08:52:23.671Z,3.80
2018-11-07T08:53:23.724Z,3.10
2018-11-07T08:54:23.704Z,3.60
2018-11-07T08:55:23.734Z,3.90
2018-11-07T08:56:23.759Z,3.60
2018-11-07T08:57:23.776Z,3.70
2018-11-07T08:58:23.804Z,3.70
2018-11-07T08:59:23.819Z,3.90
2018-11-07T09:00:23.839Z,3.50
2018-11-07T09:01:23.958Z,3.40
2018-11-07T09:02:23.888Z,3.40
2018-11-07T09:03:23.910Z,3.70
2018-11-07T09:04:23.936Z,3.40
2018-11-07T09:05:23.951Z,3.70
2018-11-07T09:06:23.975Z,3.40
2018-11-07T09:07:24.012Z,3.60
2018-11-07T09:08:24.020Z,3.70
2018-11-07T09:09:24.046Z,3.10
2018-11-07T09:10:24.060Z,3.50
2018-11-07T09:11:24.083Z,3.20
2018-11-07T09:12:24.115Z,3.40
2018-11-07T09:13:24.137Z,3.20
2018-11-07T09:14:24.160Z,3.50
2018-11-07T09:15:24.176Z,3.60
2018-11-07T09:16:24.236Z,3.30
2018-11-07T09:17:24.225Z,3.00
2018-11-07T09:18:24.251Z,3.40
2018-11-07T09:19:24.267Z,3.30
2018-11-07T09:20:24.292Z,3.30
2018-11-07T09:21:24.316Z,3.50
2018-11-07T09:22:24.360Z,3.30
2018-11-07T09:23:24.356Z,3.00
2018-11-07T09:24:24.450Z,3.50
2018-11-07T09:25:24.406Z,3.30
2018-11-07T09:26:24.416Z,3.40
2018-11-07T09:27:24.446Z,3.60
2018-11-07T09:28:24.528Z,3.30
2018-11-07T09:29:24.557Z,3.40
2018-11-07T09:30:24.504Z,3.20
2018-11-07T09:31:24.523Z,3.80
2018-11-07T09:32:24.547Z,3.50
2018-11-07T09:33:24.572Z,3.40
2018-11-07T09:34:24.597Z,3.50
2018-11-07T09:35:24.618Z,3.30
2018-11-07T09:36:24.635Z,3.40
2018-11-07T09:37:24.653Z,3.30
2018-11-07T09:38:24.681Z,3.30
2018-11-07T09:39:24.712Z,3.40
2018-11-07T09:40:24.724Z,3.10
2018-11-07T09:41:24.744Z,3.10
2018-11-07T09:42:24.759Z,3.30
2018-11-07T09:43:24.781Z,3.10
2018-11-07T09:44:24.802Z,2.50
2018-11-07T09:45:24.900Z,3.10
2018-11-07T09:46:24.846Z,2.70
2018-11-07T09:47:24.871Z,2.90
2018-11-07T09:48:25.035Z,3.20
2018-11-07T09:49:24.919Z,2.70
2018-11-07T09:50:24.941Z,2.60
2018-11-07T09:51:24.950Z,2.70
2018-11-07T09:52:24.975Z,2.90
2018-11-07T09:53:25.053Z,2.90
2018-11-07T09:54:25.094Z,2.70
2018-11-07T09:55:25.041Z,2.80
2018-11-07T09:56:25.063Z,2.40
2018-11-07T09:57:25.084Z,2.50
2018-11-07T09:58:25.101Z,2.60
2018-11-07T09:59:25.181Z,2.70
2018-11-07T10:00:25.148Z,2.70
2018-11-07T10:01:25.167Z,2.90
2018-11-07T10:02:25.188Z,2.80
2018-11-07T10:03:25.216Z,2.70
2018-11-07T10:04:25.232Z,2.80
2018-11-07T10:05:25.302Z,3.10
2018-11-07T10:06:25.327Z,2.90
2018-11-07T10:07:25.304Z,2.90
2018-11-07T10:08:25.365Z,2.40
2018-11-07T10:09:25.351Z,2.50
2018-11-07T10:10:25.362Z,2.50
2018-11-07T10:11:25.384Z,2.80
2018-11-07T10:12:25.458Z,3.00
2018-11-07T10:13:25.432Z,2.80
2018-11-07T10:14:25.539Z,2.60
2018-11-07T10:15:25.477Z,2.80
2018-11-07T10:16:25.497Z,2.40
2018-11-07T10:17:25.517Z,2.80
2018-11-07T10:18:25.533Z,3.00
2018-11-07T10:19:25.566Z,2.70
2018-11-07T10:20:25.672Z,2.90
2018-11-07T10:21:25.606Z,2.70
2018-11-07T10:22:25.617Z,2.70
2018-11-07T10:23:25.648Z,2.30
2018-11-07T10:24:25.671Z,2.60
2018-11-07T10:25:25.696Z,2.80
2018-11-07T10:26:25.757Z,2.80
2018-11-07T10:27:25.944Z,3.10
2018-11-07T10:28:25.943Z,2.70
2018-11-07T10:29:26.088Z,2.60
2018-11-07T10:30:25.872Z,3.10
2018-11-07T10:31:25.816Z,2.50
2018-11-07T10:32:25.907Z,2.60
2018-11-07T10:33:25.869Z,2.90
2018-11-07T10:34:25.899Z,2.90
2018-11-07T10:35:25.906Z,2.90
2018-11-07T10:36:25.930Z,3.00
2018-11-07T10:37:32.367Z,2.60
2018-11-07T10:38:26.002Z,2.60
2018-11-07T10:39:25.993Z,2.60
2018-11-07T10:40:26.021Z,3.20
2018-11-07T10:42:26.070Z,3.00
2018-11-07T10:43:26.073Z,2.80
2018-11-07T10:44:26.139Z,2.50
2018-11-07T10:45:26.118Z,2.40
2018-11-07T10:46:26.141Z,2.40
2018-11-07T10:47:26.155Z,2.50
2018-11-07T10:48:26.175Z,2.30
2018-11-07T10:49:26.269Z,2.50
2018-11-07T10:50:26.228Z,3.00
2018-11-07T10:51:26.248Z,3.20
2018-11-07T10:52:26.269Z,3.00
2018-11-07T10:53:26.287Z,3.00
2018-11-07T10:54:26.309Z,2.80
2018-11-07T10:55:26.333Z,3.00
2018-11-07T10:56:26.350Z,3.00
2018-11-07T10:57:26.370Z,3.00
2018-11-07T10:58:26.437Z,3.10
2018-11-07T10:59:26.400Z,3.00
2018-11-07T11:00:26.422Z,3.00
2018-11-07T11:01:26.446Z,3.20
2018-11-07T11:02:26.476Z,3.20
2018-11-07T11:03:26.485Z,3.20
2018-11-07T11:04:26.509Z,2.90
2018-11-07T11:05:26.532Z,3.20
2018-11-07T11:06:26.624Z,3.40
2018-11-07T11:07:26.562Z,3.20
2018-11-07T11:08:26.590Z,3.40
2018-11-07T11:09:26.604Z,3.30
2018-11-07T11:10:26.625Z,3.10
2018-11-07T11:11:26.700Z,3.60
2018-11-07T11:12:26.669Z,3.70
2018-11-07T11:13:26.681Z,3.10
2018-11-07T11:14:26.700Z,3.30
2018-11-07T11:15:26.720Z,3.10
2018-11-07T11:16:26.744Z,3.70
2018-11-07T11:17:26.964Z,3.30
2018-11-07T11:18:26.782Z,3.30
2018-11-07T11:19:26.801Z,3.60
2018-11-07T11:20:26.822Z,3.10
2018-11-07T11:21:26.842Z,3.00
2018-11-07T11:22:26.858Z,3.40
2018-11-07T11:23:26.877Z,3.20
2018-11-07T11:24:26.902Z,3.30
2018-11-07T11:25:26.916Z,3.00
2018-11-07T11:26:26.942Z,3.00
2018-11-07T11:27:27.100Z,3.10
2018-11-07T11:28:26.982Z,2.90
2018-11-07T11:29:27.007Z,2.90
2018-11-07T11:30:27.032Z,2.80
2018-11-07T11:31:27.083Z,2.80
2018-11-07T11:32:27.062Z,2.80
2018-11-07T11:34:27.231Z,2.70
2018-11-07T11:35:27.235Z,3.00
2018-11-07T11:36:27.147Z,2.90
2018-11-07T11:37:27.155Z,2.70
2018-11-07T11:38:27.182Z,2.90
2018-11-07T11:39:27.202Z,2.30
2018-11-07T11:40:27.265Z,2.40
2018-11-07T11:41:27.247Z,2.40
2018-11-07T11:42:27.260Z,2.50
2018-11-07T11:43:27.291Z,2.50
2018-11-07T11:44:27.328Z,2.50
2018-11-07T11:45:27.329Z,2.40
2018-11-07T11:46:27.348Z,2.60
2018-11-07T11:47:27.372Z,2.30
2018-11-07T11:48:27.388Z,2.40
2018-11-07T11:49:27.411Z,2.50
2018-11-07T11:50:27.456Z,2.40
2018-11-07T11:51:27.460Z,2.40
2018-11-07T11:52:27.478Z,2.50
2018-11-07T11:53:27.498Z,2.60
2018-11-07T11:54:27.527Z,2.50
2018-11-07T11:55:27.550Z,2.60
2018-11-07T11:56:27.570Z,2.60
2018-11-07T11:57:27.613Z,2.70
2018-11-07T11:58:27.606Z,2.30
2018-11-07T11:59:27.790Z,2.30
2018-11-07T12:00:27.728Z,2.60
2018-11-07T12:01:27.670Z,2.60
2018-11-07T12:02:27.685Z,2.70
2018-11-07T12:03:27.707Z,2.60
2018-11-07T12:04:27.735Z,3.00
2018-11-07T12:05:27.750Z,3.10
2018-11-07T12:06:27.808Z,2.90
2018-11-07T12:07:27.794Z,2.50
2018-11-07T12:08:27.840Z,2.50
2018-11-07T12:09:27.843Z,2.40
2018-11-07T12:10:27.859Z,2.50
2018-11-07T12:11:27.899Z,2.80
2018-11-07T12:12:27.898Z,2.20
2018-11-07T12:13:28.009Z,2.20
2018-11-07T12:15:28.094Z,2.50
2018-11-07T12:16:27.982Z,2.40
2018-11-07T12:17:28.008Z,2.20
2018-11-07T12:18:28.029Z,2.30
2018-11-07T12:19:28.054Z,2.50
2018-11-07T12:20:28.071Z,2.80
2018-11-07T12:21:28.096Z,2.30
2018-11-07T12:22:28.115Z,2.60
2018-11-07T12:23:28.134Z,2.50
2018-11-07T12:24:28.155Z,2.30
2018-11-07T12:25:28.179Z,2.90
2018-11-07T12:26:28.210Z,3.00
2018-11-07T12:27:28.227Z,3.00
2018-11-07T12:28:28.248Z,2.80
2018-11-07T12:29:28.258Z,2.70
2018-11-07T12:30:28.287Z,2.80
2018-11-07T12:31:28.304Z,4.00
2018-11-07T12:32:28.327Z,3.10
2018-11-07T12:33:28.342Z,2.50
2018-11-07T12:34:28.371Z,2.40
2018-11-07T12:35:28.385Z,2.40
2018-11-07T12:36:28.468Z,2.40
2018-11-07T12:37:28.511Z,2.30
2018-11-07T12:38:28.452Z,2.50
2018-11-07T12:39:28.477Z,2.60
2018-11-07T12:40:28.502Z,2.50
2018-11-07T12:41:28.512Z,2.40
2018-11-07T12:42:28.539Z,2.40
2018-11-07T12:43:28.560Z,2.30
2018-11-07T12:44:28.588Z,2.20
2018-11-07T12:45:28.601Z,2.30
2018-11-07T12:46:28.626Z,2.70
2018-11-07T12:47:28.640Z,2.40
2018-11-07T12:48:28.709Z,2.40
2018-11-07T12:49:28.687Z,2.60
2018-11-07T12:50:28.813Z,2.20
2018-11-07T12:51:28.730Z,2.60
2018-11-07T12:52:28.753Z,2.90
2018-11-07T12:53:28.771Z,2.60
2018-11-07T12:54:28.847Z,2.50
2018-11-07T12:55:28.819Z,2.70
2018-11-07T12:56:28.835Z,2.90
2018-11-07T12:57:28.898Z,2.90
2018-11-07T12:58:28.877Z,2.80
2018-11-07T12:59:28.904Z,2.70
2018-11-07T13:00:28.919Z,3.00
2018-11-07T13:01:28.943Z,2.70
2018-11-07T13:02:28.965Z,2.90
2018-11-07T13:03:28.983Z,2.80
2018-11-07T13:04:29.058Z,2.80
2018-11-07T13:05:29.031Z,2.70
2018-11-07T13:06:29.051Z,2.80
2018-11-07T13:07:29.071Z,3.10
2018-11-07T13:08:29.090Z,2.80
2018-11-07T13:09:29.116Z,3.10
2018-11-07T13:10:29.132Z,3.10
2018-11-07T13:11:29.259Z,3.00
2018-11-07T13:12:29.181Z,2.70
2018-11-07T13:13:29.200Z,2.60
2018-11-07T13:14:29.220Z,2.50
2018-11-07T13:15:29.239Z,2.50
2018-11-07T13:16:29.280Z,2.60
2018-11-07T13:17:29.336Z,2.90
2018-11-07T13:18:29.308Z,2.60
2018-11-07T13:19:29.331Z,2.90
2018-11-07T13:20:29.346Z,2.80
2018-11-07T13:21:29.372Z,2.50
2018-11-07T13:22:29.448Z,2.50
2018-11-07T13:23:29.416Z,2.50